createdAt,value
2024-01-24T00:02:09.027Z,28.58
2024-01-24T00:07:00.613Z,32.65
2024-01-24T00:11:52.281Z,28.00
2024-01-24T00:16:43.880Z,27.80
2024-01-24T00:21:38.349Z,37.97
2024-01-24T00:26:29.995Z,46.33
2024-01-24T00:31:21.752Z,34.53
2024-01-24T00:36:13.401Z,37.95
2024-01-24T00:41:05.198Z,26.08
2024-01-24T00:45:57.313Z,29.73
2024-01-24T00:50:48.948Z,30.25
2024-01-24T00:55:40.516Z,32.97
2024-01-24T01:00:32.128Z,37.53
2024-01-24T01:05:23.771Z,34.83
2024-01-24T01:10:15.459Z,40.97
2024-01-24T01:15:07.297Z,36.97
2024-01-24T01:19:59.491Z,42.45
2024-01-24T01:24:51.130Z,33.15
2024-01-24T01:29:42.822Z,49.10
2024-01-24T01:34:34.569Z,40.45
2024-01-24T01:39:26.358Z,30.35
2024-01-24T01:44:18.599Z,24.27
2024-01-24T01:49:10.607Z,30.83
2024-01-24T01:54:02.619Z,27.83
2024-01-24T01:58:54.374Z,25.25
2024-01-24T02:03:47.532Z,19.63
2024-01-24T02:08:41.029Z,17.27
2024-01-24T02:13:33.130Z,19.45
2024-01-24T02:18:25.176Z,21.52
2024-01-24T02:23:19.269Z,18.95
2024-01-24T02:28:10.863Z,21.52
2024-01-24T02:33:03.133Z,32.40
2024-01-24T02:37:55.335Z,23.70
2024-01-24T02:42:46.956Z,21.08
2024-01-24T02:47:38.705Z,21.52
2024-01-24T02:52:32.839Z,25.27
2024-01-24T02:57:24.460Z,19.13
2024-01-24T03:02:16.060Z,22.02
2024-01-24T03:07:07.772Z,23.95
2024-01-24T03:11:59.427Z,23.65
2024-01-24T03:16:51.152Z,14.32
2024-01-24T03:21:43.098Z,21.75
2024-01-24T03:26:34.752Z,21.25
2024-01-24T03:31:26.307Z,19.67
2024-01-24T03:36:17.901Z,16.15
2024-01-24T03:41:09.563Z,24.60
2024-01-24T03:46:01.857Z,14.73
2024-01-24T03:50:53.534Z,19.70
2024-01-24T03:55:45.261Z,15.30
2024-01-24T04:00:36.962Z,16.23
2024-01-24T04:05:28.656Z,19.05
2024-01-24T04:10:20.648Z,19.88
2024-01-24T04:15:12.309Z,16.45
2024-01-24T04:20:04.320Z,17.20
2024-01-24T04:24:56.099Z,14.32
2024-01-24T04:29:47.796Z,14.80
2024-01-24T04:34:39.451Z,18.48
2024-01-24T04:39:31.642Z,17.63
2024-01-24T04:44:23.186Z,16.52
2024-01-24T04:49:26.236Z,15.15
2024-01-24T04:54:26.319Z,17.27
2024-01-24T04:59:17.843Z,18.00
2024-01-24T05:04:10.836Z,14.45
2024-01-24T05:09:03.781Z,13.00
2024-01-24T05:13:56.960Z,11.88
2024-01-24T05:18:48.711Z,15.20
2024-01-24T05:23:41.721Z,17.35
2024-01-24T05:28:33.374Z,17.77
2024-01-24T05:33:25.063Z,10.93
2024-01-24T05:38:16.643Z,21.95
2024-01-24T05:43:08.299Z,22.83
2024-01-24T05:47:59.973Z,20.48
2024-01-24T05:52:52.608Z,17.65
2024-01-24T05:57:47.458Z,21.38
2024-01-24T06:02:39.131Z,13.75
2024-01-24T06:07:31.671Z,17.40
2024-01-24T06:12:23.747Z,17.15
2024-01-24T06:17:15.389Z,16.30
2024-01-24T06:22:07.140Z,23.13
2024-01-24T06:26:58.852Z,17.52
2024-01-24T06:31:51.403Z,16.77
2024-01-24T06:36:43.026Z,21.00
2024-01-24T06:41:34.721Z,26.02
2024-01-24T06:46:29.135Z,16.08
2024-01-24T06:51:20.788Z,18.30
2024-01-24T06:56:12.372Z,12.82
2024-01-24T07:01:04.059Z,18.25
2024-01-24T07:05:55.688Z,18.63
2024-01-24T07:10:47.244Z,22.10
2024-01-24T07:15:39.082Z,14.95
2024-01-24T07:20:30.977Z,18.90
2024-01-24T07:25:22.841Z,16.10
2024-01-24T07:30:15.224Z,12.65
2024-01-24T07:35:07.326Z,13.68
2024-01-24T07:39:59.017Z,13.77
2024-01-24T07:44:50.859Z,14.98
2024-01-24T07:49:43.241Z,21.73
2024-01-24T07:54:35.338Z,14.85
2024-01-24T07:59:27.108Z,15.23
2024-01-24T08:04:19.162Z,11.77
2024-01-24T08:09:12.521Z,19.25
2024-01-24T08:14:05.290Z,12.23
2024-01-24T08:18:57.877Z,18.25
2024-01-24T08:23:51.690Z,13.93
2024-01-24T08:28:46.339Z,11.85
2024-01-24T08:33:38.152Z,11.52
2024-01-24T08:38:31.450Z,11.70
2024-01-24T08:43:23.096Z,15.65
2024-01-24T08:48:15.550Z,12.52
2024-01-24T08:53:07.301Z,16.73
2024-01-24T08:57:59.032Z,22.48
2024-01-24T09:02:50.787Z,18.30
2024-01-24T09:07:43.009Z,13.07
2024-01-24T09:12:34.721Z,15.07
2024-01-24T09:17:27.219Z,16.17
2024-01-24T09:22:18.899Z,10.55
2024-01-24T09:27:10.978Z,15.65
2024-01-24T09:32:02.541Z,11.85
2024-01-24T09:36:55.464Z,16.17
2024-01-24T09:41:52.047Z,16.45
2024-01-24T09:46:43.833Z,17.15
2024-01-24T09:51:36.412Z,12.50
2024-01-24T09:56:30.291Z,18.33
2024-01-24T10:01:23.230Z,17.85
2024-01-24T10:06:17.631Z,17.48
2024-01-24T10:11:10.699Z,17.35
2024-01-24T10:16:09.375Z,13.07
2024-01-24T10:21:06.492Z,15.82
2024-01-24T10:25:59.191Z,16.77
2024-01-24T10:30:51.714Z,18.95
2024-01-24T10:35:44.671Z,15.43
2024-01-24T10:40:38.532Z,20.92
2024-01-24T10:45:32.648Z,12.60
2024-01-24T10:50:26.187Z,13.98
2024-01-24T10:55:18.850Z,16.25
2024-01-24T11:00:12.793Z,16.27
2024-01-24T11:05:09.497Z,19.90
2024-01-24T11:10:17.458Z,18.10
2024-01-24T11:15:14.896Z,13.32
2024-01-24T11:20:08.155Z,19.57
2024-01-24T11:25:00.621Z,15.15
2024-01-24T11:29:53.681Z,17.30
2024-01-24T11:34:45.729Z,18.30
2024-01-24T11:39:41.187Z,21.73
2024-01-24T11:44:33.386Z,14.77
2024-01-24T11:49:27.608Z,20.45
2024-01-24T11:54:19.946Z,19.63
2024-01-24T11:59:12.533Z,16.00
2024-01-24T12:04:05.800Z,16.63
2024-01-24T12:08:58.551Z,25.67
2024-01-24T12:13:51.220Z,11.85
2024-01-24T12:18:42.975Z,18.00
2024-01-24T12:23:35.816Z,17.38
2024-01-24T12:28:27.784Z,13.80
2024-01-24T12:33:20.374Z,17.60
2024-01-24T12:38:12.662Z,18.02
2024-01-24T12:43:06.214Z,19.30
2024-01-24T12:47:57.982Z,19.08
2024-01-24T12:52:50.004Z,18.80
2024-01-24T12:57:43.248Z,19.00
2024-01-24T13:02:35.804Z,17.65
2024-01-24T13:07:28.137Z,20.33
2024-01-24T13:12:19.832Z,12.90
2024-01-24T13:17:11.544Z,18.85
2024-01-24T13:22:03.281Z,15.63
2024-01-24T13:26:55.989Z,17.10
2024-01-24T13:31:48.931Z,10.52
2024-01-24T13:36:42.404Z,13.27
2024-01-24T13:41:34.066Z,11.13
2024-01-24T13:46:25.880Z,17.55
2024-01-24T13:51:19.227Z,12.48
2024-01-24T13:56:17.230Z,23.27
2024-01-24T14:01:09.238Z,19.10
2024-01-24T14:06:01.311Z,21.60
2024-01-24T14:10:53.781Z,14.48
2024-01-24T14:15:45.612Z,19.45
2024-01-24T14:20:37.247Z,18.85
2024-01-24T14:25:28.854Z,23.20
2024-01-24T14:30:20.521Z,20.80
2024-01-24T14:35:15.765Z,16.02
2024-01-24T14:40:08.318Z,15.25
2024-01-24T14:45:02.458Z,27.20
2024-01-24T14:49:54.154Z,18.55
2024-01-24T14:54:46.269Z,19.83
2024-01-24T14:59:38.361Z,19.80
2024-01-24T15:04:30.072Z,18.10
2024-01-24T15:09:22.241Z,16.98
2024-01-24T15:14:14.212Z,20.58
2024-01-24T15:19:05.861Z,22.90
2024-01-24T15:23:57.659Z,17.52
2024-01-24T15:28:49.282Z,22.20
2024-01-24T15:33:42.796Z,18.55
2024-01-24T15:38:36.403Z,20.63
2024-01-24T15:43:28.312Z,15.25
2024-01-24T15:48:20.196Z,16.50
2024-01-24T15:53:12.210Z,14.85
2024-01-24T15:58:04.139Z,19.98
2024-01-24T16:02:56.657Z,13.00
2024-01-24T16:07:48.401Z,10.88
2024-01-24T16:12:40.592Z,13.38
2024-01-24T16:17:33.158Z,17.45
2024-01-24T16:22:32.934Z,9.23
2024-01-24T16:27:28.075Z,18.05
2024-01-24T16:32:20.545Z,13.00
2024-01-24T16:37:12.175Z,22.50
2024-01-24T16:42:06.385Z,24.10
2024-01-24T16:46:58.195Z,24.80
2024-01-24T16:51:50.765Z,13.32
2024-01-24T16:56:42.795Z,23.92
2024-01-24T17:01:34.788Z,11.63
2024-01-24T17:06:26.717Z,14.52
2024-01-24T17:11:19.889Z,12.60
2024-01-24T17:16:11.528Z,7.97
2024-01-24T17:21:05.178Z,12.35
2024-01-24T17:25:57.746Z,11.23
2024-01-24T17:30:49.866Z,10.48
2024-01-24T17:35:43.681Z,11.50
2024-01-24T17:40:35.524Z,15.52
2024-01-24T17:45:27.193Z,12.00
2024-01-24T17:50:19.197Z,14.15
2024-01-24T17:55:11.479Z,11.48
2024-01-24T18:00:06.086Z,10.80
2024-01-24T18:04:58.491Z,16.50
2024-01-24T18:09:54.058Z,11.40
2024-01-24T18:14:45.677Z,10.93
2024-01-24T18:19:37.348Z,14.05
2024-01-24T18:24:29.349Z,9.00
2024-01-24T18:29:20.939Z,15.68
2024-01-24T18:34:12.630Z,26.77
2024-01-24T18:39:04.643Z,15.88
2024-01-24T18:43:56.245Z,15.85
2024-01-24T18:48:48.662Z,18.48
2024-01-24T18:53:44.817Z,15.07
2024-01-24T18:58:36.690Z,16.42
2024-01-24T19:03:28.865Z,15.48
2024-01-24T19:08:20.804Z,16.08
2024-01-24T19:13:12.481Z,9.25
2024-01-24T19:18:10.871Z,15.27
2024-01-24T19:23:05.968Z,18.25
2024-01-24T19:27:57.593Z,20.70
2024-01-24T19:32:49.363Z,18.08
2024-01-24T19:37:41.230Z,14.18
2024-01-24T19:42:32.868Z,18.25
2024-01-24T19:47:29.952Z,18.90
2024-01-24T19:52:21.967Z,18.40
2024-01-24T19:57:14.134Z,15.60
2024-01-24T20:02:05.767Z,14.23
2024-01-24T20:06:57.718Z,20.75
2024-01-24T20:11:49.369Z,20.73
2024-01-24T20:16:41.542Z,17.73
2024-01-24T20:21:38.958Z,24.30
2024-01-24T20:26:30.610Z,17.27
2024-01-24T20:36:28.162Z,20.58
2024-01-24T20:41:19.823Z,17.52
2024-01-24T20:46:11.990Z,20.25
2024-01-24T20:51:04.882Z,12.93
2024-01-24T20:55:56.978Z,17.98
2024-01-24T21:00:48.889Z,9.85
2024-01-24T21:05:40.662Z,12.20
2024-01-24T21:10:32.917Z,5.82
2024-01-24T21:15:24.675Z,11.40
2024-01-24T21:20:16.515Z,13.73
2024-01-24T21:25:09.138Z,12.05
2024-01-24T21:30:01.101Z,9.48
2024-01-24T21:34:53.139Z,15.35
2024-01-24T21:39:44.814Z,12.40
2024-01-24T21:44:36.469Z,14.00
2024-01-24T21:49:29.238Z,14.20
2024-01-24T21:54:21.093Z,18.73
2024-01-24T21:59:12.780Z,22.75
2024-01-24T22:04:04.890Z,14.30
2024-01-24T22:09:00.515Z,13.63
2024-01-24T22:13:52.185Z,11.15
2024-01-24T22:18:47.997Z,9.13
2024-01-24T22:23:41.047Z,13.48
2024-01-24T22:28:32.733Z,23.42
2024-01-24T22:33:24.697Z,12.15
2024-01-24T22:38:16.570Z,17.25
2024-01-24T22:43:08.286Z,10.07
2024-01-24T22:48:01.670Z,19.05
2024-01-24T22:52:53.426Z,18.63
2024-01-24T22:57:50.160Z,18.48
2024-01-24T23:02:42.403Z,14.13
2024-01-24T23:07:34.168Z,15.13
2024-01-24T23:12:26.180Z,22.55
2024-01-24T23:17:18.114Z,15.70
2024-01-24T23:22:09.773Z,15.05
2024-01-24T23:27:01.511Z,23.05
2024-01-24T23:31:53.094Z,22.10
2024-01-24T23:36:45.477Z,15.43
2024-01-24T23:41:40.212Z,19.08
2024-01-24T23:46:34.512Z,16.17
2024-01-24T23:51:26.895Z,21.98
2024-01-24T23:56:18.655Z,22.92
